Map

Track Data

SID SEASON NUMBER BASIN SUBBASIN NAME ISO_TIME NATURE LAT LON WMO_WIND WMO_PRES WMO_AGENCY TRACK_TYPE DIST2LAND LANDFALL IFLAG USA_AGENCY USA_ATCF_ID USA_LAT USA_LON USA_RECORD USA_STATUS USA_WIND USA_PRES USA_SSHS USA_R34_NE USA_R34_SE USA_R34_SW USA_R34_NW USA_R50_NE USA_R50_SE USA_R50_SW USA_R50_NW USA_R64_NE USA_R64_SE USA_R64_SW USA_R64_NW USA_POCI USA_ROCI USA_RMW USA_EYE TOKYO_LAT TOKYO_LON TOKYO_GRADE TOKYO_WIND TOKYO_PRES TOKYO_R50_DIR TOKYO_R50_LONG TOKYO_R50_SHORT TOKYO_R30_DIR TOKYO_R30_LONG TOKYO_R30_SHORT TOKYO_LAND CMA_LAT CMA_LON CMA_CAT CMA_WIND CMA_PRES HKO_LAT HKO_LON HKO_CAT HKO_WIND HKO_PRES NEWDELHI_LAT NEWDELHI_LON NEWDELHI_GRADE NEWDELHI_WIND NEWDELHI_PRES NEWDELHI_CI NEWDELHI_DP NEWDELHI_POCI REUNION_LAT REUNION_LON REUNION_TYPE REUNION_WIND REUNION_PRES REUNION_TNUM REUNION_CI REUNION_RMW REUNION_R34_NE REUNION_R34_SE REUNION_R34_SW REUNION_R34_NW REUNION_R50_NE REUNION_R50_SE REUNION_R50_SW REUNION_R50_NW REUNION_R64_NE REUNION_R64_SE REUNION_R64_SW REUNION_R64_NW BOM_LAT BOM_LON BOM_TYPE BOM_WIND BOM_PRES BOM_TNUM BOM_CI BOM_RMW BOM_R34_NE BOM_R34_SE BOM_R34_SW BOM_R34_NW BOM_R50_NE BOM_R50_SE BOM_R50_SW BOM_R50_NW BOM_R64_NE BOM_R64_SE BOM_R64_SW BOM_R64_NW BOM_ROCI BOM_POCI BOM_EYE BOM_POS_METHOD BOM_PRES_METHOD NADI_LAT NADI_LON NADI_CAT NADI_WIND NADI_PRES WELLINGTON_LAT WELLINGTON_LON WELLINGTON_WIND WELLINGTON_PRES DS824_LAT DS824_LON DS824_STAGE DS824_WIND DS824_PRES TD9636_LAT TD9636_LON TD9636_STAGE TD9636_WIND TD9636_PRES TD9635_LAT TD9635_LON TD9635_WIND TD9635_PRES TD9635_ROCI NEUMANN_LAT NEUMANN_LON NEUMANN_CLASS NEUMANN_WIND NEUMANN_PRES MLC_LAT MLC_LON MLC_CLASS MLC_WIND MLC_PRES USA_GUST BOM_GUST BOM_GUST_PER REUNION_GUST REUNION_GUST_PER USA_SEAHGT USA_SEARAD_NE USA_SEARAD_SE USA_SEARAD_SW USA_SEARAD_NW STORM_SPEED STORM_DIR
1903010S13125 1903 3 SI WA NOT_NAMED 1903-01-09 12:00:00 NR -13.0000 124.500 main 187 178 __________O___ -1 -13.0000 124.500 7 4 206
1903010S13125 1903 3 SI WA NOT_NAMED 1903-01-09 15:00:00 NR -13.1922 124.411 main 178 165 __________P___ -1 -13.1922 124.411 7 4 205
1903010S13125 1903 3 SI WA NOT_NAMED 1903-01-09 18:00:00 NR -13.3775 124.318 main 165 156 __________P___ -1 -13.3775 124.318 7 4 208
1903010S13125 1903 3 SI WA NOT_NAMED 1903-01-09 21:00:00 NR -13.5491 124.215 main 163 155 __________P___ -1 -13.5491 124.215 7 4 213
1903010S13125 1903 3 SI WA NOT_NAMED 1903-01-10 00:00:00 NR -13.7000 124.100 main 155 148 __________O___ -1 -13.7000 124.100 7 4 221
1903010S13125 1903 3 SI WA NOT_NAMED 1903-01-10 03:00:00 NR -13.8272 123.968 main 157 157 __________P___ -1 -13.8272 123.968 7 4 228
1903010S13125 1903 3 SI WA NOT_NAMED 1903-01-10 06:00:00 NR -13.9425 123.822 main 170 165 __________P___ -1 -13.9425 123.822 7 4 231
1903010S13125 1903 3 SI WA NOT_NAMED 1903-01-10 09:00:00 NR -14.0615 123.665 main 170 170 __________P___ -1 -14.0615 123.665 7 4 230
1903010S13125 1903 3 SI WA NOT_NAMED 1903-01-10 12:00:00 NR -14.2000 123.500 main 179 172 __________O___ -1 -14.2000 123.500 7 4 223
1903010S13125 1903 3 SI WA NOT_NAMED 1903-01-10 15:00:00 NR -14.3823 123.356 main 172 170 __________P___ -1 -14.3823 123.356 7 5 217
1903010S13125 1903 3 SI WA NOT_NAMED 1903-01-10 18:00:00 NR -14.5847 123.202 main 170 165 __________P___ -1 -14.5847 123.202 7 5 218
1903010S13125 1903 3 SI WA NOT_NAMED 1903-01-10 21:00:00 NR -14.7948 123.022 main 173 159 __________P___ -1 -14.7948 123.022 7 6 223
1903010S13125 1903 3 SI WA NOT_NAMED 1903-01-11 00:00:00 NR -15.0000 122.800 main 165 149 __________O___ -1 -15.0000 122.800 7 6 231
1903010S13125 1903 3 SI WA NOT_NAMED 1903-01-11 03:00:00 NR -15.1823 122.522 main 151 144 __________P___ -1 -15.1823 122.522 7 7 238
1903010S13125 1903 3 SI WA NOT_NAMED 1903-01-11 06:00:00 NR -15.3576 122.202 main 144 144 __________P___ -1 -15.3576 122.202 7 7 242
1903010S13125 1903 3 SI WA NOT_NAMED 1903-01-11 09:00:00 NR -15.5291 121.856 main 154 154 __________P___ -1 -15.5291 121.856 7 8 243
1903010S13125 1903 3 SI WA NOT_NAMED 1903-01-11 12:00:00 NR -15.7000 121.500 main 170 170 __________O___ -1 -15.7000 121.500 7 8 243
1903010S13125 1903 3 SI WA NOT_NAMED 1903-01-11 15:00:00 NR -15.8749 121.153 main 178 178 __________P___ -1 -15.8749 121.153 7 8 243
1903010S13125 1903 3 SI WA NOT_NAMED 1903-01-11 18:00:00 NR -16.0499 120.800 main 201 195 __________P___ -1 -16.0499 120.800 7 8 243
1903010S13125 1903 3 SI WA NOT_NAMED 1903-01-11 21:00:00 NR -16.2249 120.447 main 226 221 __________P___ -1 -16.2249 120.447 7 8 242
1903010S13125 1903 3 SI WA NOT_NAMED 1903-01-12 00:00:00 NR -16.4000 120.100 main 245 245 __________O___ -1 -16.4000 120.100 7 8 243
1903010S13125 1903 3 SI WA NOT_NAMED 1903-01-12 03:00:00 NR -16.5669 119.747 main 277 277 __________P___ -1 -16.5669 119.747 7 7 243
1903010S13125 1903 3 SI WA NOT_NAMED 1903-01-12 06:00:00 NR -16.7350 119.405 main 304 300 __________P___ -1 -16.7350 119.405 7 7 242
1903010S13125 1903 3 SI WA NOT_NAMED 1903-01-12 09:00:00 NR -16.9107 119.085 main 328 328 __________P___ -1 -16.9107 119.085 7 7 238
1903010S13125 1903 3 SI WA NOT_NAMED 1903-01-12 12:00:00 NR -17.1000 118.800 main 337 317 __________O___ -1 -17.1000 118.800 7 7 234
1903010S13125 1903 3 SI WA NOT_NAMED 1903-01-12 15:00:00 NR -17.3308 118.491 main 319 295 __________P___ -1 -17.3308 118.491 7 7 229
1903010S13125 1903 3 SI WA NOT_NAMED 1903-01-12 18:00:00 NR -17.5723 118.228 main 295 277 __________P___ -1 -17.5723 118.228 7 6 222
1903010S13125 1903 3 SI WA NOT_NAMED 1903-01-12 21:00:00 NR -17.8026 118.051 main 277 261 __________P___ -1 -17.8026 118.051 7 5 207
1903010S13125 1903 3 SI WA NOT_NAMED 1903-01-13 00:00:00 NR -18.0000 118.000 main 261 237 __________O___ -1 -18.0000 118.000 7 4 169
1903010S13125 1903 3 SI WA NOT_NAMED 1903-01-13 03:00:00 NR -18.1645 118.124 main 237 214 __________P___ -1 -18.1645 118.124 7 5 129
1903010S13125 1903 3 SI WA NOT_NAMED 1903-01-13 06:00:00 NR -18.2903 118.372 main 214 194 __________P___ -1 -18.2903 118.372 7 6 111
1903010S13125 1903 3 SI WA NOT_NAMED 1903-01-13 09:00:00 NR -18.3709 118.683 main 194 190 __________P___ -1 -18.3709 118.683 7 6 100
1903010S13125 1903 3 SI WA NOT_NAMED 1903-01-13 12:00:00 NR -18.4000 119.000 main 190 189 __________O___ -1 -18.4000 119.000 7 5 91
1903010S13125 1903 3 SI WA NOT_NAMED 1903-01-13 15:00:00 NR -18.3834 119.241 main 189 183 __________P___ -1 -18.3834 119.241 7 5 80
1903010S13125 1903 3 SI WA NOT_NAMED 1903-01-13 18:00:00 NR -18.3174 119.473 main 192 189 __________P___ -1 -18.3174 119.473 7 5 69
1903010S13125 1903 3 SI WA NOT_NAMED 1903-01-13 21:00:00 NR -18.2178 119.694 main 197 192 __________P___ -1 -18.2178 119.694 7 5 62
1903010S13125 1903 3 SI WA NOT_NAMED 1903-01-14 00:00:00 NR -18.1000 119.900 main 197 181 __________O___ -1 -18.1000 119.900 7 4 58
1903010S13125 1903 3 SI WA NOT_NAMED 1903-01-14 03:00:00 NR -17.9852 120.089 main 181 167 __________P___ -1 -17.9852 120.089 7 4 55
1903010S13125 1903 3 SI WA NOT_NAMED 1903-01-14 06:00:00 NR -17.8573 120.265 main 167 163 __________P___ -1 -17.8573 120.265 7 4 52
1903010S13125 1903 3 SI WA NOT_NAMED 1903-01-14 09:00:00 NR -17.7258 120.433 main 170 159 __________P___ -1 -17.7258 120.433 7 4 51
1903010S13125 1903 3 SI WA NOT_NAMED 1903-01-14 12:00:00 NR -17.6000 120.600 main 159 148 __________O___ -1 -17.6000 120.600 7 4 47
1903010S13125 1903 3 SI WA NOT_NAMED 1903-01-14 15:00:00 NR -17.4760 120.718 main 148 139 __________P___ -1 -17.4760 120.718 7 3 44
1903010S13125 1903 3 SI WA NOT_NAMED 1903-01-14 18:00:00 NR -17.3615 120.845 main 139 121 __________P___ -1 -17.3615 120.845 7 4 54
1903010S13125 1903 3 SI WA NOT_NAMED 1903-01-14 21:00:00 NR -17.2663 121.024 main 121 95 __________P___ -1 -17.2663 121.024 7 5 70
1903010S13125 1903 3 SI WA NOT_NAMED 1903-01-15 00:00:00 NR -17.2000 121.300 main 95 57 __________O___ -1 -17.2000 121.300 7 7 80
1903010S13125 1903 3 SI WA NOT_NAMED 1903-01-15 03:00:00 NR -17.1398 121.757 main 48 0 __________P___ -1 -17.1398 121.757 7 10 85
1903010S13125 1903 3 SI WA NOT_NAMED 1903-01-15 06:00:00 NR -17.1115 122.306 main 0 0 __________P___ -1 -17.1115 122.306 7 11 89
1903010S13125 1903 3 SI WA NOT_NAMED 1903-01-15 09:00:00 NR -17.1273 122.876 main 0 0 __________P___ -1 -17.1273 122.876 7 11 95
1903010S13125 1903 3 SI WA NOT_NAMED 1903-01-15 12:00:00 NR -17.2000 123.400 main 10 0 __________O___ -1 -17.2000 123.400 7 9 101
1903010S13125 1903 3 SI WA NOT_NAMED 1903-01-15 15:00:00 NR -17.3055 123.815 main 0 0 __________P___ -1 -17.3055 123.815 7 8 110
1903010S13125 1903 3 SI WA NOT_NAMED 1903-01-15 18:00:00 NR -17.4720 124.170 main 0 0 __________P___ -1 -17.4720 124.170 7 7 123
1903010S13125 1903 3 SI WA NOT_NAMED 1903-01-15 21:00:00 NR -17.7026 124.465 main 0 0 __________P___ -1 -17.7026 124.465 7 7 136
1903010S13125 1903 3 SI WA NOT_NAMED 1903-01-16 00:00:00 NR -18.0000 124.700 main 0 0 __________O___ -1 -18.0000 124.700 7 8 147
1903010S13125 1903 3 SI WA NOT_NAMED 1903-01-16 03:00:00 NR -18.3601 124.911 main 0 0 __________P___ -1 -18.3601 124.911 7 9 156
1903010S13125 1903 3 SI WA NOT_NAMED 1903-01-16 06:00:00 NR -18.7822 125.062 main 0 0 __________P___ -1 -18.7822 125.062 7 9 165
1903010S13125 1903 3 SI WA NOT_NAMED 1903-01-16 09:00:00 NR -19.2383 125.158 main 0 0 __________P___ -1 -19.2383 125.158 7 9 172
1903010S13125 1903 3 SI WA NOT_NAMED 1903-01-16 12:00:00 NR -19.7000 125.200 main 0 0 __________O___ -1 -19.7000 125.200 7 9 177
1903010S13125 1903 3 SI WA NOT_NAMED 1903-01-16 15:00:00 NR -20.1087 125.205 main 0 0 __________P___ -1 -20.1087 125.205 7 8 183
1903010S13125 1903 3 SI WA NOT_NAMED 1903-01-16 18:00:00 NR -20.5200 125.160 main 0 0 __________P___ -1 -20.5200 125.160 7 9 188
1903010S13125 1903 3 SI WA NOT_NAMED 1903-01-16 21:00:00 NR -20.9462 125.086 main 0 0 __________P___ -1 -20.9462 125.086 7 9 190
1903010S13125 1903 3 SI WA NOT_NAMED 1903-01-17 00:00:00 NR -21.4000 125.000 main 0 0 __________O___ -1 -21.4000 125.000 7 10 189
1903010S13125 1903 3 SI WA NOT_NAMED 1903-01-17 03:00:00 NR -21.8922 124.928 main 0 0 __________P___ -1 -21.8922 124.928 7 10 188
1903010S13125 1903 3 SI WA NOT_NAMED 1903-01-17 06:00:00 NR -22.4126 124.850 main 0 0 __________P___ -1 -22.4126 124.850 7 11 188
1903010S13125 1903 3 SI WA NOT_NAMED 1903-01-17 09:00:00 NR -22.9516 124.772 main 0 0 __________P___ -1 -22.9516 124.772 7 11 187
1903010S13125 1903 3 SI WA NOT_NAMED 1903-01-17 12:00:00 NR -23.5000 124.700 main 0 0 __________O___ -1 -23.5000 124.700 7 11 189
1903010S13125 1903 3 SI WA NOT_NAMED 1903-01-17 15:00:00 NR -24.0670 124.591 main 0 0 __________P___ -1 -24.0670 124.591 7 12 189
1903010S13125 1903 3 SI WA NOT_NAMED 1903-01-17 18:00:00 NR -24.6372 124.497 main 0 0 __________P___ -1 -24.6372 124.497 7 11 186
1903010S13125 1903 3 SI WA NOT_NAMED 1903-01-17 21:00:00 NR -25.1888 124.454 main 0 0 __________P___ -1 -25.1888 124.454 7 11 179
1903010S13125 1903 3 SI WA NOT_NAMED 1903-01-18 00:00:00 NR -25.7000 124.500 main 0 0 __________O___ -1 -25.7000 124.500 7 10 169
1903010S13125 1903 3 SI WA NOT_NAMED 1903-01-18 03:00:00 NR -26.1633 124.660 main 0 0 __________P___ -1 -26.1633 124.660 7 10 157
1903010S13125 1903 3 SI WA NOT_NAMED 1903-01-18 06:00:00 NR -26.5823 124.914 main 0 0 __________P___ -1 -26.5823 124.914 7 10 147
1903010S13125 1903 3 SI WA NOT_NAMED 1903-01-18 09:00:00 NR -26.9601 125.236 main 0 0 __________P___ -1 -26.9601 125.236 7 9 140
1903010S13125 1903 3 SI WA NOT_NAMED 1903-01-18 12:00:00 NR -27.3000 125.600 main 0 0 __________O___ -1 -27.3000 125.600 7 9 134
1903010S13125 1903 3 SI WA NOT_NAMED 1903-01-18 15:00:00 NR -27.6061 125.984 main 0 0 __________P___ -1 -27.6061 125.984 7 9 130
1903010S13125 1903 3 SI WA NOT_NAMED 1903-01-18 18:00:00 NR -27.8859 126.382 main 0 0 __________P___ -1 -27.8859 126.382 7 9 127
1903010S13125 1903 3 SI WA NOT_NAMED 1903-01-18 21:00:00 NR -28.1478 126.788 main 0 0 __________P___ -1 -28.1478 126.788 7 9 125
1903010S13125 1903 3 SI WA NOT_NAMED 1903-01-19 00:00:00 NR -28.4000 127.200 main 0 __________O___ -1 -28.4000 127.200 7 9 125

About IBTrACS Database

This database is a web-friendly format of International Best Track Archive for Climate Stewardship (IBTrACS), a global best track data archive curated by NOAA dating back to 1842.

Updated: 2021-12-01